sensor_id;sensor_type;location;lat;lon;timestamp;pressure;altitude;pressure_sealevel;temperature;humidity
29505;BME280;16452;54.174;12.092;2022-07-21T00:01:54;101276.91;;;30.35;48.75
29505;BME280;16452;54.174;12.092;2022-07-21T00:04:21;101267.66;;;30.44;50.15
29505;BME280;16452;54.174;12.092;2022-07-21T00:06:47;101272.19;;;30.09;51.24
29505;BME280;16452;54.174;12.092;2022-07-21T00:09:14;101271.44;;;30.22;52.25
29505;BME280;16452;54.174;12.092;2022-07-21T00:11:40;101267.63;;;30.10;52.32
29505;BME280;16452;54.174;12.092;2022-07-21T00:14:08;101273.34;;;29.79;55.82
29505;BME280;16452;54.174;12.092;2022-07-21T00:16:36;101262.03;;;30.05;58.77
29505;BME280;16452;54.174;12.092;2022-07-21T00:19:02;101262.66;;;29.86;65.13
29505;BME280;16452;54.174;12.092;2022-07-21T00:21:28;101270.84;;;29.99;66.01
29505;BME280;16452;54.174;12.092;2022-07-21T00:23:54;101260.53;;;29.81;67.20
29505;BME280;16452;54.174;12.092;2022-07-21T00:26:20;101257.16;;;29.51;69.30
29505;BME280;16452;54.174;12.092;2022-07-21T00:28:46;101252.63;;;29.52;68.97
29505;BME280;16452;54.174;12.092;2022-07-21T00:31:12;101241.75;;;29.38;70.10
29505;BME280;16452;54.174;12.092;2022-07-21T00:33:38;101239.13;;;29.45;69.83
29505;BME280;16452;54.174;12.092;2022-07-21T00:36:04;101239.19;;;29.52;69.83
29505;BME280;16452;54.174;12.092;2022-07-21T00:38:29;101238.34;;;29.15;70.54
29505;BME280;16452;54.174;12.092;2022-07-21T00:40:55;101237.22;;;28.74;72.32
29505;BME280;16452;54.174;12.092;2022-07-21T00:43:21;101236.94;;;28.69;72.22
29505;BME280;16452;54.174;12.092;2022-07-21T00:45:47;101229.16;;;28.44;73.77
29505;BME280;16452;54.174;12.092;2022-07-21T00:48:13;101224.47;;;28.76;72.54
29505;BME280;16452;54.174;12.092;2022-07-21T00:50:39;101228.44;;;28.65;72.85
29505;BME280;16452;54.174;12.092;2022-07-21T00:53:05;101218.91;;;28.63;73.06
29505;BME280;16452;54.174;12.092;2022-07-21T00:55:31;101226.78;;;28.35;74.27
29505;BME280;16452;54.174;12.092;2022-07-21T00:57:57;101212.16;;;28.23;74.56
29505;BME280;16452;54.174;12.092;2022-07-21T01:00:26;101211.50;;;28.50;73.78
29505;BME280;16452;54.174;12.092;2022-07-21T01:02:54;101213.75;;;28.46;74.28
29505;BME280;16452;54.174;12.092;2022-07-21T01:05:21;101208.84;;;28.35;73.22
29505;BME280;16452;54.174;12.092;2022-07-21T01:07:53;101211.13;;;28.38;71.87
29505;BME280;16452;54.174;12.092;2022-07-21T01:10:22;101206.69;;;28.31;70.67
29505;BME280;16452;54.174;12.092;2022-07-21T01:12:48;101208.75;;;28.29;71.02
29505;BME280;16452;54.174;12.092;2022-07-21T01:15:16;101217.34;;;28.24;70.65
29505;BME280;16452;54.174;12.092;2022-07-21T01:17:43;101211.03;;;28.32;70.00
29505;BME280;16452;54.174;12.092;2022-07-21T01:20:14;101213.66;;;28.02;69.62
29505;BME280;16452;54.174;12.092;2022-07-21T01:22:42;101205.53;;;27.96;69.38
29505;BME280;16452;54.174;12.092;2022-07-21T01:25:09;101205.06;;;27.77;69.56
29505;BME280;16452;54.174;12.092;2022-07-21T01:27:35;101189.47;;;28.10;67.90
29505;BME280;16452;54.174;12.092;2022-07-21T01:30:02;101194.56;;;28.05;68.81
29505;BME280;16452;54.174;12.092;2022-07-21T01:32:28;101189.53;;;27.88;70.50
29505;BME280;16452;54.174;12.092;2022-07-21T01:34:54;101184.41;;;28.01;70.10
29505;BME280;16452;54.174;12.092;2022-07-21T01:37:28;101186.66;;;27.74;70.86
29505;BME280;16452;54.174;12.092;2022-07-21T01:39:54;101182.81;;;27.54;72.30
29505;BME280;16452;54.174;12.092;2022-07-21T01:42:39;101177.25;;;27.56;72.48
29505;BME280;16452;54.174;12.092;2022-07-21T01:45:06;101183.63;;;27.92;71.98
29505;BME280;16452;54.174;12.092;2022-07-21T01:47:33;101184.78;;;27.60;74.44
29505;BME280;16452;54.174;12.092;2022-07-21T01:49:59;101189.19;;;27.53;75.13
29505;BME280;16452;54.174;12.092;2022-07-21T01:52:25;101185.69;;;27.45;75.51
29505;BME280;16452;54.174;12.092;2022-07-21T01:54:54;101180.09;;;27.77;74.70
29505;BME280;16452;54.174;12.092;2022-07-21T01:57:19;101184.56;;;27.39;75.90
29505;BME280;16452;54.174;12.092;2022-07-21T01:59:45;101176.66;;;27.23;76.40
29505;BME280;16452;54.174;12.092;2022-07-21T02:02:11;101180.94;;;27.32;76.20
29505;BME280;16452;54.174;12.092;2022-07-21T02:04:37;101181.22;;;27.14;76.56
29505;BME280;16452;54.174;12.092;2022-07-21T02:07:03;101180.50;;;27.20;76.95
29505;BME280;16452;54.174;12.092;2022-07-21T02:09:29;101190.03;;;27.23;76.63
29505;BME280;16452;54.174;12.092;2022-07-21T02:11:55;101180.13;;;27.54;75.65
29505;BME280;16452;54.174;12.092;2022-07-21T02:14:21;101185.97;;;27.50;76.29
29505;BME280;16452;54.174;12.092;2022-07-21T02:16:47;101192.16;;;27.58;75.49
29505;BME280;16452;54.174;12.092;2022-07-21T02:19:12;101188.75;;;27.64;74.95
29505;BME280;16452;54.174;12.092;2022-07-21T02:21:38;101182.72;;;27.39;76.35
29505;BME280;16452;54.174;12.092;2022-07-21T02:24:05;101184.38;;;26.95;78.96
29505;BME280;16452;54.174;12.092;2022-07-21T02:26:31;101176.78;;;26.68;80.24
29505;BME280;16452;54.174;12.092;2022-07-21T02:28:57;101176.84;;;26.51;81.21
29505;BME280;16452;54.174;12.092;2022-07-21T02:31:23;101177.84;;;26.58;81.29
29505;BME280;16452;54.174;12.092;2022-07-21T02:33:48;101174.25;;;26.74;81.04
29505;BME280;16452;54.174;12.092;2022-07-21T02:36:14;101176.59;;;26.77;81.23
29505;BME280;16452;54.174;12.092;2022-07-21T02:38:40;101173.84;;;26.54;82.59
29505;BME280;16452;54.174;12.092;2022-07-21T02:41:06;101176.94;;;26.27;84.11
29505;BME280;16452;54.174;12.092;2022-07-21T02:43:31;101157.69;;;26.40;83.71
29505;BME280;16452;54.174;12.092;2022-07-21T02:45:57;101142.09;;;26.51;83.21
29505;BME280;16452;54.174;12.092;2022-07-21T02:48:23;101136.44;;;26.46;84.45
29505;BME280;16452;54.174;12.092;2022-07-21T02:50:48;101141.03;;;26.30;85.10
29505;BME280;16452;54.174;12.092;2022-07-21T02:53:18;101139.09;;;26.54;84.39
29505;BME280;16452;54.174;12.092;2022-07-21T02:55:49;101146.75;;;26.57;84.07
29505;BME280;16452;54.174;12.092;2022-07-21T02:58:23;101142.59;;;26.55;84.46
29505;BME280;16452;54.174;12.092;2022-07-21T03:00:51;101147.50;;;26.43;85.00
29505;BME280;16452;54.174;12.092;2022-07-21T03:03:17;101152.72;;;26.37;85.07
29505;BME280;16452;54.174;12.092;2022-07-21T03:05:43;101144.38;;;26.32;85.62
29505;BME280;16452;54.174;12.092;2022-07-21T03:08:10;101156.75;;;26.25;85.82
29505;BME280;16452;54.174;12.092;2022-07-21T03:10:37;101152.03;;;26.35;85.08
29505;BME280;16452;54.174;12.092;2022-07-21T03:13:04;101163.22;;;26.22;85.71
29505;BME280;16452;54.174;12.092;2022-07-21T03:15:30;101151.56;;;26.23;85.07
29505;BME280;16452;54.174;12.092;2022-07-21T03:17:57;101152.41;;;26.32;85.24
29505;BME280;16452;54.174;12.092;2022-07-21T03:20:25;101141.16;;;26.75;83.16
29505;BME280;16452;54.174;12.092;2022-07-21T03:22:50;101140.81;;;26.78;82.63
29505;BME280;16452;54.174;12.092;2022-07-21T03:25:17;101137.78;;;26.81;82.33
29505;BME280;16452;54.174;12.092;2022-07-21T03:27:44;101141.69;;;27.02;81.63
29505;BME280;16452;54.174;12.092;2022-07-21T03:30:10;101144.50;;;26.77;82.32
29505;BME280;16452;54.174;12.092;2022-07-21T03:32:37;101143.91;;;26.59;83.48
29505;BME280;16452;54.174;12.092;2022-07-21T03:35:04;101138.63;;;26.74;83.73
29505;BME280;16452;54.174;12.092;2022-07-21T03:37:31;101131.94;;;26.47;84.96
29505;BME280;16452;54.174;12.092;2022-07-21T03:39:57;101135.63;;;26.77;83.16
29505;BME280;16452;54.174;12.092;2022-07-21T03:42:23;101142.72;;;27.01;82.10
29505;BME280;16452;54.174;12.092;2022-07-21T03:44:48;101139.03;;;26.63;83.90
29505;BME280;16452;54.174;12.092;2022-07-21T03:47:15;101142.59;;;26.94;82.63
29505;BME280;16452;54.174;12.092;2022-07-21T03:49:40;101139.94;;;26.55;85.14
29505;BME280;16452;54.174;12.092;2022-07-21T03:52:06;101132.84;;;27.01;82.37
29505;BME280;16452;54.174;12.092;2022-07-21T03:54:32;101129.75;;;26.81;83.55
29505;BME280;16452;54.174;12.092;2022-07-21T03:56:57;101128.03;;;26.96;83.29
29505;BME280;16452;54.174;12.092;2022-07-21T03:59:23;101135.25;;;26.88;83.48
29505;BME280;16452;54.174;12.092;2022-07-21T04:01:49;101135.66;;;27.08;82.63
29505;BME280;16452;54.174;12.092;2022-07-21T04:04:14;101138.56;;;26.59;84.88
29505;BME280;16452;54.174;12.092;2022-07-21T04:06:40;101147.13;;;26.54;85.56
29505;BME280;16452;54.174;12.092;2022-07-21T04:09:06;101140.31;;;26.75;84.23
29505;BME280;16452;54.174;12.092;2022-07-21T04:11:32;101145.09;;;26.56;84.94
29505;BME280;16452;54.174;12.092;2022-07-21T04:13:58;101147.56;;;26.97;83.96
29505;BME280;16452;54.174;12.092;2022-07-21T04:16:24;101154.31;;;26.85;84.94
29505;BME280;16452;54.174;12.092;2022-07-21T04:18:49;101153.25;;;27.25;81.86
29505;BME280;16452;54.174;12.092;2022-07-21T04:21:15;101159.34;;;27.94;79.20
29505;BME280;16452;54.174;12.092;2022-07-21T04:23:41;101160.56;;;28.50;77.31
29505;BME280;16452;54.174;12.092;2022-07-21T04:26:07;101154.50;;;29.13;74.38
29505;BME280;16452;54.174;12.092;2022-07-21T04:28:33;101147.31;;;29.35;73.41
29505;BME280;16452;54.174;12.092;2022-07-21T04:30:58;101156.84;;;29.65;72.21
29505;BME280;16452;54.174;12.092;2022-07-21T04:33:24;101140.50;;;30.16;70.01
29505;BME280;16452;54.174;12.092;2022-07-21T04:35:50;101146.94;;;29.94;71.02
29505;BME280;16452;54.174;12.092;2022-07-21T04:38:16;101149.91;;;30.46;68.18
29505;BME280;16452;54.174;12.092;2022-07-21T04:40:43;101167.19;;;31.19;66.55
29505;BME280;16452;54.174;12.092;2022-07-21T04:43:09;101159.09;;;31.13;65.27
29505;BME280;16452;54.174;12.092;2022-07-21T04:45:34;101148.63;;;30.77;65.98
29505;BME280;16452;54.174;12.092;2022-07-21T04:48:00;101150.78;;;29.85;69.27
29505;BME280;16452;54.174;12.092;2022-07-21T04:50:28;101169.91;;;31.39;64.91
29505;BME280;16452;54.174;12.092;2022-07-21T04:52:54;101164.50;;;31.52;64.14
29505;BME280;16452;54.174;12.092;2022-07-21T04:55:20;101157.88;;;31.94;62.72
29505;BME280;16452;54.174;12.092;2022-07-21T04:57:48;101163.28;;;31.88;62.59
29505;BME280;16452;54.174;12.092;2022-07-21T05:00:25;101156.22;;;31.40;65.18
29505;BME280;16452;54.174;12.092;2022-07-21T05:02:52;101168.88;;;32.12;62.78
29505;BME280;16452;54.174;12.092;2022-07-21T05:05:19;101174.25;;;31.93;63.42
29505;BME280;16452;54.174;12.092;2022-07-21T05:07:44;101147.94;;;31.75;64.14
29505;BME280;16452;54.174;12.092;2022-07-21T05:10:13;101165.13;;;31.94;62.54
29505;BME280;16452;54.174;12.092;2022-07-21T05:12:39;101180.75;;;33.07;59.80
29505;BME280;16452;54.174;12.092;2022-07-21T05:15:07;101158.69;;;32.79;59.98
29505;BME280;16452;54.174;12.092;2022-07-21T05:17:34;101169.09;;;32.62;60.84
29505;BME280;16452;54.174;12.092;2022-07-21T05:20:01;101177.97;;;32.25;61.94
29505;BME280;16452;54.174;12.092;2022-07-21T05:22:26;101158.31;;;31.32;65.13
29505;BME280;16452;54.174;12.092;2022-07-21T05:24:52;101174.50;;;31.78;63.87
29505;BME280;16452;54.174;12.092;2022-07-21T05:27:18;101180.88;;;32.23;62.06
29505;BME280;16452;54.174;12.092;2022-07-21T05:29:44;101187.53;;;31.48;64.20
29505;BME280;16452;54.174;12.092;2022-07-21T05:32:09;101193.34;;;31.91;63.33
29505;BME280;16452;54.174;12.092;2022-07-21T05:34:35;101190.78;;;31.04;65.86
29505;BME280;16452;54.174;12.092;2022-07-21T05:37:02;101194.00;;;30.86;66.86
29505;BME280;16452;54.174;12.092;2022-07-21T05:39:28;101173.63;;;30.64;67.47
29505;BME280;16452;54.174;12.092;2022-07-21T05:41:54;101176.47;;;29.66;70.68
29505;BME280;16452;54.174;12.092;2022-07-21T05:44:20;101180.22;;;29.44;71.21
29505;BME280;16452;54.174;12.092;2022-07-21T05:46:45;101165.44;;;29.54;70.63
29505;BME280;16452;54.174;12.092;2022-07-21T05:49:11;101161.25;;;29.73;70.88
29505;BME280;16452;54.174;12.092;2022-07-21T05:51:37;101159.28;;;29.60;70.26
29505;BME280;16452;54.174;12.092;2022-07-21T05:54:02;101161.09;;;29.32;71.01
29505;BME280;16452;54.174;12.092;2022-07-21T05:56:28;101164.16;;;29.29;71.37
29505;BME280;16452;54.174;12.092;2022-07-21T05:58:54;101168.16;;;29.33;70.96
29505;BME280;16452;54.174;12.092;2022-07-21T06:01:20;101171.56;;;29.27;70.49
29505;BME280;16452;54.174;12.092;2022-07-21T06:03:50;101176.72;;;29.43;71.05
29505;BME280;16452;54.174;12.092;2022-07-21T06:06:17;101183.00;;;28.93;73.40
29505;BME280;16452;54.174;12.092;2022-07-21T06:08:46;101186.44;;;28.87;72.87
29505;BME280;16452;54.174;12.092;2022-07-21T06:11:15;101201.63;;;28.50;74.81
29505;BME280;16452;54.174;12.092;2022-07-21T06:13:42;101220.63;;;28.99;73.41
29505;BME280;16452;54.174;12.092;2022-07-21T06:16:09;101201.25;;;28.53;75.68
29505;BME280;16452;54.174;12.092;2022-07-21T06:18:35;101213.88;;;28.89;73.59
29505;BME280;16452;54.174;12.092;2022-07-21T06:21:01;101200.13;;;28.77;74.04
29505;BME280;16452;54.174;12.092;2022-07-21T06:23:28;101212.78;;;28.69;74.08
29505;BME280;16452;54.174;12.092;2022-07-21T06:25:54;101215.47;;;28.54;75.17
29505;BME280;16452;54.174;12.092;2022-07-21T06:28:20;101224.63;;;28.45;76.41
29505;BME280;16452;54.174;12.092;2022-07-21T06:30:52;101227.69;;;28.71;74.84
29505;BME280;16452;54.174;12.092;2022-07-21T06:33:18;101225.00;;;28.71;74.96
29505;BME280;16452;54.174;12.092;2022-07-21T06:35:44;101232.81;;;29.17;73.59
29505;BME280;16452;54.174;12.092;2022-07-21T06:38:09;101245.97;;;29.12;73.13
29505;BME280;16452;54.174;12.092;2022-07-21T06:40:35;101254.41;;;28.35;75.28
29505;BME280;16452;54.174;12.092;2022-07-21T06:43:01;101262.53;;;28.27;75.66
29505;BME280;16452;54.174;12.092;2022-07-21T06:45:27;101265.13;;;27.98;76.97
29505;BME280;16452;54.174;12.092;2022-07-21T06:48:19;101278.34;;;28.22;76.34
29505;BME280;16452;54.174;12.092;2022-07-21T06:50:47;101276.59;;;28.29;75.66
29505;BME280;16452;54.174;12.092;2022-07-21T06:53:13;101286.13;;;28.09;75.89
29505;BME280;16452;54.174;12.092;2022-07-21T06:55:39;101292.00;;;27.90;77.29
29505;BME280;16452;54.174;12.092;2022-07-21T06:58:17;101299.84;;;28.14;76.19
29505;BME280;16452;54.174;12.092;2022-07-21T07:00:45;101289.09;;;27.54;77.50
29505;BME280;16452;54.174;12.092;2022-07-21T07:03:11;101285.81;;;27.89;77.18
29505;BME280;16452;54.174;12.092;2022-07-21T07:05:37;101284.66;;;27.61;77.44
29505;BME280;16452;54.174;12.092;2022-07-21T07:08:04;101280.72;;;27.49;77.45
29505;BME280;16452;54.174;12.092;2022-07-21T07:10:29;101274.69;;;27.77;76.69
29505;BME280;16452;54.174;12.092;2022-07-21T07:12:55;101262.38;;;28.06;75.82
29505;BME280;16452;54.174;12.092;2022-07-21T07:15:23;101258.22;;;28.03;76.16
29505;BME280;16452;54.174;12.092;2022-07-21T07:17:49;101281.69;;;28.24;74.73
29505;BME280;16452;54.174;12.092;2022-07-21T07:20:15;101274.84;;;27.99;75.84
29505;BME280;16452;54.174;12.092;2022-07-21T07:22:41;101260.03;;;27.88;75.61
29505;BME280;16452;54.174;12.092;2022-07-21T07:25:08;101267.47;;;27.55;76.15
29505;BME280;16452;54.174;12.092;2022-07-21T07:27:34;101257.84;;;27.38;77.34
29505;BME280;16452;54.174;12.092;2022-07-21T07:30:00;101238.38;;;27.52;76.17
29505;BME280;16452;54.174;12.092;2022-07-21T07:32:25;101232.34;;;27.50;76.18
29505;BME280;16452;54.174;12.092;2022-07-21T07:34:51;101233.47;;;27.78;76.60
29505;BME280;16452;54.174;12.092;2022-07-21T07:37:17;101237.03;;;27.94;75.08
29505;BME280;16452;54.174;12.092;2022-07-21T07:39:43;101224.97;;;28.12;73.82
29505;BME280;16452;54.174;12.092;2022-07-21T07:42:08;101224.44;;;28.17;73.93
29505;BME280;16452;54.174;12.092;2022-07-21T07:44:34;101224.53;;;28.38;73.08
29505;BME280;16452;54.174;12.092;2022-07-21T07:47:00;101218.06;;;27.81;75.03
29505;BME280;16452;54.174;12.092;2022-07-21T07:49:30;101222.91;;;28.00;74.11
29505;BME280;16452;54.174;12.092;2022-07-21T07:51:57;101247.94;;;28.44;73.04
29505;BME280;16452;54.174;12.092;2022-07-21T07:54:23;101255.31;;;28.28;73.27
29505;BME280;16452;54.174;12.092;2022-07-21T07:56:49;101258.66;;;28.30;72.95
29505;BME280;16452;54.174;12.092;2022-07-21T07:59:14;101267.44;;;28.24;73.10
29505;BME280;16452;54.174;12.092;2022-07-21T08:01:40;101267.84;;;28.12;73.18
29505;BME280;16452;54.174;12.092;2022-07-21T08:04:06;101269.06;;;27.87;73.66
29505;BME280;16452;54.174;12.092;2022-07-21T08:06:32;101281.59;;;28.09;72.97
29505;BME280;16452;54.174;12.092;2022-07-21T08:08:58;101295.31;;;27.92;73.81
29505;BME280;16452;54.174;12.092;2022-07-21T08:11:24;101296.81;;;28.17;72.90
29505;BME280;16452;54.174;12.092;2022-07-21T08:13:50;101297.22;;;28.06;72.50
29505;BME280;16452;54.174;12.092;2022-07-21T08:16:16;101299.72;;;27.62;73.89
29505;BME280;16452;54.174;12.092;2022-07-21T08:18:42;101295.19;;;27.85;73.53
29505;BME280;16452;54.174;12.092;2022-07-21T08:21:09;101289.72;;;27.78;73.32
29505;BME280;16452;54.174;12.092;2022-07-21T08:23:36;101280.50;;;27.81;74.28
29505;BME280;16452;54.174;12.092;2022-07-21T08:26:02;101281.69;;;28.01;72.71
29505;BME280;16452;54.174;12.092;2022-07-21T08:28:29;101282.03;;;28.21;71.60
29505;BME280;16452;54.174;12.092;2022-07-21T08:30:55;101281.50;;;28.03;73.12
29505;BME280;16452;54.174;12.092;2022-07-21T08:33:21;101290.47;;;28.10;71.72
29505;BME280;16452;54.174;12.092;2022-07-21T08:35:46;101301.50;;;28.15;72.41
29505;BME280;16452;54.174;12.092;2022-07-21T08:38:12;101316.47;;;27.87;73.26
29505;BME280;16452;54.174;12.092;2022-07-21T08:40:43;101321.28;;;28.14;71.72
29505;BME280;16452;54.174;12.092;2022-07-21T08:43:10;101315.31;;;27.81;72.98
29505;BME280;16452;54.174;12.092;2022-07-21T08:45:39;101318.53;;;27.99;72.55
29505;BME280;16452;54.174;12.092;2022-07-21T08:48:05;101328.72;;;27.81;72.56
29505;BME280;16452;54.174;12.092;2022-07-21T08:50:37;101325.63;;;28.15;71.56
29505;BME280;16452;54.174;12.092;2022-07-21T08:53:03;101326.91;;;28.42;70.04
29505;BME280;16452;54.174;12.092;2022-07-21T08:55:35;101323.53;;;28.77;69.00
29505;BME280;16452;54.174;12.092;2022-07-21T08:58:02;101312.34;;;28.74;69.73
29505;BME280;16452;54.174;12.092;2022-07-21T09:00:31;101316.13;;;28.79;69.02
29505;BME280;16452;54.174;12.092;2022-07-21T09:03:29;101312.03;;;28.69;70.45
29505;BME280;16452;54.174;12.092;2022-07-21T09:06:13;101328.06;;;28.91;69.12
29505;BME280;16452;54.174;12.092;2022-07-21T09:08:43;101350.19;;;28.79;69.15
29505;BME280;16452;54.174;12.092;2022-07-21T09:13:41;101351.50;;;28.60;70.08
29505;BME280;16452;54.174;12.092;2022-07-21T09:16:08;101367.94;;;28.80;69.77
29505;BME280;16452;54.174;12.092;2022-07-21T09:18:43;101355.38;;;28.43;70.03
29505;BME280;16452;54.174;12.092;2022-07-21T09:21:11;101364.22;;;28.29;70.84
29505;BME280;16452;54.174;12.092;2022-07-21T09:23:37;101361.94;;;28.40;70.22
29505;BME280;16452;54.174;12.092;2022-07-21T09:26:03;101346.09;;;28.31;70.51
29505;BME280;16452;54.174;12.092;2022-07-21T09:28:30;101351.00;;;28.27;70.93
29505;BME280;16452;54.174;12.092;2022-07-21T09:31:06;101360.13;;;28.55;69.67
29505;BME280;16452;54.174;12.092;2022-07-21T09:33:33;101357.81;;;28.52;70.12
29505;BME280;16452;54.174;12.092;2022-07-21T09:36:19;101352.69;;;28.80;69.84
29505;BME280;16452;54.174;12.092;2022-07-21T09:38:54;101367.94;;;28.42;71.14
29505;BME280;16452;54.174;12.092;2022-07-21T09:41:25;101371.47;;;27.97;73.83
29505;BME280;16452;54.174;12.092;2022-07-21T09:43:56;101370.16;;;28.91;70.00
29505;BME280;16452;54.174;12.092;2022-07-21T09:46:28;101366.88;;;28.66;70.34
29505;BME280;16452;54.174;12.092;2022-07-21T09:48:57;101369.63;;;28.95;69.47
29505;BME280;16452;54.174;12.092;2022-07-21T09:51:35;101369.16;;;28.92;70.05
29505;BME280;16452;54.174;12.092;2022-07-21T09:54:12;101377.38;;;29.20;68.94
29505;BME280;16452;54.174;12.092;2022-07-21T09:56:44;101391.47;;;29.22;68.32
29505;BME280;16452;54.174;12.092;2022-07-21T09:59:12;101384.50;;;29.13;69.49
29505;BME280;16452;54.174;12.092;2022-07-21T10:01:39;101372.97;;;28.83;69.63
29505;BME280;16452;54.174;12.092;2022-07-21T10:04:05;101380.94;;;29.06;69.04
29505;BME280;16452;54.174;12.092;2022-07-21T10:06:36;101370.72;;;29.16;68.33
29505;BME280;16452;54.174;12.092;2022-07-21T10:09:05;101375.03;;;28.73;70.90
29505;BME280;16452;54.174;12.092;2022-07-21T10:11:32;101372.56;;;29.15;68.63
29505;BME280;16452;54.174;12.092;2022-07-21T10:13:58;101374.25;;;29.02;69.23
29505;BME280;16452;54.174;12.092;2022-07-21T10:16:24;101385.72;;;29.25;68.51
29505;BME280;16452;54.174;12.092;2022-07-21T10:19:18;101388.25;;;29.41;68.57
29505;BME280;16452;54.174;12.092;2022-07-21T10:22:09;101391.28;;;29.38;68.42
29505;BME280;16452;54.174;12.092;2022-07-21T10:24:37;101397.19;;;29.48;68.81
29505;BME280;16452;54.174;12.092;2022-07-21T10:27:10;101372.72;;;29.94;66.64
29505;BME280;16452;54.174;12.092;2022-07-21T10:35:30;101393.44;;;30.64;64.06
29505;BME280;16452;54.174;12.092;2022-07-21T10:37:57;101401.97;;;30.46;64.49
29505;BME280;16452;54.174;12.092;2022-07-21T10:45:39;101408.06;;;30.54;62.89
29505;BME280;16452;54.174;12.092;2022-07-21T10:48:07;101408.47;;;30.51;63.63
29505;BME280;16452;54.174;12.092;2022-07-21T10:50:40;101410.75;;;30.54;63.51
29505;BME280;16452;54.174;12.092;2022-07-21T10:53:13;101410.09;;;30.74;62.39
29505;BME280;16452;54.174;12.092;2022-07-21T10:55:48;101405.97;;;30.78;62.32
29505;BME280;16452;54.174;12.092;2022-07-21T11:03:27;101398.31;;;30.81;61.53
29505;BME280;16452;54.174;12.092;2022-07-21T11:08:37;101387.44;;;30.96;61.58
29505;BME280;16452;54.174;12.092;2022-07-21T11:11:39;101376.75;;;30.75;62.09
29505;BME280;16452;54.174;12.092;2022-07-21T11:14:14;101383.22;;;30.87;62.49
29505;BME280;16452;54.174;12.092;2022-07-21T11:19:38;101364.81;;;30.84;62.96
29505;BME280;16452;54.174;12.092;2022-07-21T11:22:10;101379.31;;;30.55;63.24
29505;BME280;16452;54.174;12.092;2022-07-21T11:24:37;101386.63;;;30.95;62.64
29505;BME280;16452;54.174;12.092;2022-07-21T11:27:18;101402.34;;;30.98;61.73
29505;BME280;16452;54.174;12.092;2022-07-21T11:29:46;101401.31;;;31.21;60.89
29505;BME280;16452;54.174;12.092;2022-07-21T11:32:13;101413.53;;;31.23;60.24
29505;BME280;16452;54.174;12.092;2022-07-21T11:34:55;101418.38;;;31.41;60.27
29505;BME280;16452;54.174;12.092;2022-07-21T11:37:33;101411.34;;;31.47;59.52
29505;BME280;16452;54.174;12.092;2022-07-21T11:40:00;101416.94;;;31.38;60.17
29505;BME280;16452;54.174;12.092;2022-07-21T11:42:27;101411.34;;;31.47;59.65
29505;BME280;16452;54.174;12.092;2022-07-21T11:44:54;101422.69;;;31.35;60.50
29505;BME280;16452;54.174;12.092;2022-07-21T11:47:20;101421.88;;;31.35;61.95
29505;BME280;16452;54.174;12.092;2022-07-21T11:49:53;101428.16;;;31.49;59.56
29505;BME280;16452;54.174;12.092;2022-07-21T11:52:23;101406.94;;;30.70;62.59
29505;BME280;16452;54.174;12.092;2022-07-21T11:54:52;101399.78;;;30.84;62.27
29505;BME280;16452;54.174;12.092;2022-07-21T11:57:21;101413.06;;;30.85;61.27
29505;BME280;16452;54.174;12.092;2022-07-21T11:59:48;101429.63;;;30.89;62.31
29505;BME280;16452;54.174;12.092;2022-07-21T12:02:24;101425.16;;;31.30;59.49
29505;BME280;16452;54.174;12.092;2022-07-21T12:04:58;101428.00;;;31.16;58.70
29505;BME280;16452;54.174;12.092;2022-07-21T12:10:28;101419.97;;;31.70;54.69
29505;BME280;16452;54.174;12.092;2022-07-21T12:13:04;101411.63;;;31.58;54.95
29505;BME280;16452;54.174;12.092;2022-07-21T12:15:37;101425.59;;;31.68;57.12
29505;BME280;16452;54.174;12.092;2022-07-21T12:18:21;101431.25;;;31.11;58.51
29505;BME280;16452;54.174;12.092;2022-07-21T12:21:02;101431.56;;;30.67;61.67
29505;BME280;16452;54.174;12.092;2022-07-21T12:23:30;101429.34;;;31.33;59.82
29505;BME280;16452;54.174;12.092;2022-07-21T12:26:02;101436.66;;;31.11;59.42
29505;BME280;16452;54.174;12.092;2022-07-21T12:28:50;101450.00;;;30.98;59.67
29505;BME280;16452;54.174;12.092;2022-07-21T12:31:20;101447.19;;;31.06;58.49
29505;BME280;16452;54.174;12.092;2022-07-21T12:33:48;101436.00;;;30.53;60.59
29505;BME280;16452;54.174;12.092;2022-07-21T12:36:14;101444.44;;;30.72;59.57
29505;BME280;16452;54.174;12.092;2022-07-21T12:38:43;101446.13;;;30.51;61.44
29505;BME280;16452;54.174;12.092;2022-07-21T12:41:13;101452.38;;;31.08;59.21
29505;BME280;16452;54.174;12.092;2022-07-21T12:43:40;101443.28;;;31.09;60.06
29505;BME280;16452;54.174;12.092;2022-07-21T12:46:11;101437.78;;;31.30;58.75
29505;BME280;16452;54.174;12.092;2022-07-21T12:48:39;101433.94;;;30.83;60.83
29505;BME280;16452;54.174;12.092;2022-07-21T12:53:43;101449.25;;;31.04;58.17
29505;BME280;16452;54.174;12.092;2022-07-21T12:56:13;101459.34;;;31.02;58.47
29505;BME280;16452;54.174;12.092;2022-07-21T12:58:39;101456.94;;;31.07;57.77
29505;BME280;16452;54.174;12.092;2022-07-21T13:01:05;101449.03;;;31.06;58.26
29505;BME280;16452;54.174;12.092;2022-07-21T13:03:33;101432.47;;;30.10;61.06
29505;BME280;16452;54.174;12.092;2022-07-21T13:06:01;101424.44;;;30.17;62.32
29505;BME280;16452;54.174;12.092;2022-07-21T13:08:28;101425.28;;;30.17;61.59
29505;BME280;16452;54.174;12.092;2022-07-21T13:10:54;101418.88;;;30.40;60.93
29505;BME280;16452;54.174;12.092;2022-07-21T13:13:20;101404.59;;;30.18;60.79
29505;BME280;16452;54.174;12.092;2022-07-21T13:15:46;101399.59;;;29.58;61.82